Time;durP1;ratioP1;P1;durP2;ratioP2;P2;SDS_P1;SDS_P2;PMS_P1;PMS_P2;Temp;Humidity;BMP_temperature;BMP_pressure;BME280_temperature;BME280_humidity;BME280_pressure;Samples;Min_cycle;Max_cycle;Signal;HPM_P1;HPM_P2
2021/11/05 00:00:47;;;;;;;3.13;1.30;;;6.90;99.90;;;;;;5034907;28;20168;-70
2021/11/05 00:03:13;;;;;;;1.63;1.53;;;6.90;99.90;;;;;;5034930;28;20194;-70
2021/11/05 00:05:38;;;;;;;1.03;0.93;;;6.90;99.90;;;;;;5033637;28;20296;-70
2021/11/05 00:08:07;;;;;;;1.90;1.43;;;6.90;99.90;;;;;;5034834;28;20187;-71
2021/11/05 00:10:35;;;;;;;1.20;1.10;;;6.90;99.90;;;;;;5034752;28;20167;-69
2021/11/05 00:13:01;;;;;;;1.20;1.10;;;6.90;99.90;;;;;;5034684;28;20552;-70
2021/11/05 00:15:28;;;;;;;1.57;1.47;;;6.90;99.90;;;;;;5034451;28;20480;-70
2021/11/05 00:17:53;;;;;;;1.50;1.20;;;6.90;99.90;;;;;;5034247;28;20679;-70
2021/11/05 00:20:19;;;;;;;1.33;1.00;;;6.90;99.90;;;;;;5033401;28;20411;-70
2021/11/05 00:22:45;;;;;;;1.10;1.00;;;6.80;99.90;;;;;;5033378;28;20643;-70
2021/11/05 00:25:10;;;;;;;0.90;0.80;;;6.80;99.90;;;;;;5033169;28;20195;-71
2021/11/05 00:27:38;;;;;;;1.50;1.30;;;6.80;99.90;;;;;;5033223;28;20210;-70
2021/11/05 00:30:08;;;;;;;1.40;1.30;;;6.80;99.90;;;;;;5033124;28;20188;-69
2021/11/05 00:32:34;;;;;;;1.73;1.37;;;6.70;99.90;;;;;;5033150;28;20398;-69
2021/11/05 00:35:00;;;;;;;0.70;0.70;;;6.70;99.90;;;;;;5032562;28;20410;-69
2021/11/05 00:37:25;;;;;;;1.33;0.97;;;6.70;99.90;;;;;;5033084;28;20406;-69
2021/11/05 00:39:51;;;;;;;1.03;1.03;;;6.70;99.90;;;;;;5032938;28;20207;-70
2021/11/05 00:42:17;;;;;;;2.07;1.67;;;6.70;99.90;;;;;;5032835;28;20250;-70
2021/11/05 00:44:42;;;;;;;1.00;0.90;;;6.70;99.90;;;;;;5032976;28;20199;-70
2021/11/05 00:47:09;;;;;;;1.43;0.90;;;6.70;99.90;;;;;;5031935;28;20186;-70
2021/11/05 00:49:34;;;;;;;1.10;1.00;;;6.70;99.90;;;;;;5032910;28;20301;-70
2021/11/05 00:52:00;;;;;;;1.43;1.20;;;6.60;99.90;;;;;;5033111;28;20403;-70
2021/11/05 00:54:25;;;;;;;1.00;1.00;;;6.60;99.90;;;;;;5032771;28;20244;-70
2021/11/05 00:56:51;;;;;;;1.00;0.80;;;6.60;99.90;;;;;;5032766;28;20168;-72
2021/11/05 00:59:19;;;;;;;1.30;1.20;;;6.60;99.90;;;;;;5032684;28;20208;-70
2021/11/05 01:01:45;;;;;;;1.00;0.90;;;6.60;99.90;;;;;;5032766;28;20176;-70
2021/11/05 01:04:10;;;;;;;1.17;1.03;;;6.60;99.90;;;;;;5033111;28;20767;-71
2021/11/05 01:06:36;;;;;;;1.03;0.90;;;6.60;99.90;;;;;;5032872;28;20176;-70
2021/11/05 01:09:03;;;;;;;1.20;0.90;;;6.70;99.90;;;;;;5031285;28;20194;-72
2021/11/05 01:11:29;;;;;;;1.37;1.13;;;6.70;99.90;;;;;;5032478;28;20164;-70
2021/11/05 01:13:54;;;;;;;1.20;0.90;;;6.60;99.90;;;;;;5032557;28;20402;-70
2021/11/05 01:16:20;;;;;;;0.90;0.80;;;6.60;99.90;;;;;;5032772;28;20195;-71
2021/11/05 01:19:33;;;;;;;1.10;1.00;;;6.60;99.90;;;;;;5068621;28;20933;-69
2021/11/05 01:21:59;;;;;;;0.80;0.80;;;6.60;99.90;;;;;;5048862;28;20435;-69
2021/11/05 01:24:25;;;;;;;1.23;1.13;;;6.70;99.90;;;;;;5049046;28;20166;-70
2021/11/05 01:26:52;;;;;;;1.10;1.10;;;6.70;99.90;;;;;;5049066;28;20394;-70
2021/11/05 01:29:18;;;;;;;1.20;1.07;;;6.70;99.90;;;;;;5048571;28;20190;-71
2021/11/05 01:31:43;;;;;;;1.33;1.23;;;6.70;99.90;;;;;;5051189;28;20492;-70
2021/11/05 01:34:09;;;;;;;1.90;1.13;;;6.70;99.90;;;;;;5050988;28;20203;-69
2021/11/05 01:36:34;;;;;;;0.93;0.90;;;6.70;99.90;;;;;;5050390;28;20175;-70
2021/11/05 01:39:00;;;;;;;2.00;1.67;;;6.70;99.90;;;;;;5050071;28;20685;-69
2021/11/05 01:41:25;;;;;;;1.33;1.23;;;6.70;99.90;;;;;;5049465;28;20179;-69
2021/11/05 01:43:51;;;;;;;2.10;1.63;;;6.80;99.90;;;;;;5049466;28;20610;-69
2021/11/05 01:46:19;;;;;;;1.37;1.10;;;6.80;99.90;;;;;;5048969;28;20228;-70
2021/11/05 01:48:47;;;;;;;1.10;1.00;;;6.80;99.90;;;;;;5048789;28;20786;-67
2021/11/05 01:51:15;;;;;;;1.40;1.23;;;6.80;99.90;;;;;;5048403;28;20433;-69
2021/11/05 01:53:40;;;;;;;1.50;1.40;;;6.80;99.90;;;;;;5048349;28;20432;-69
2021/11/05 01:56:06;;;;;;;1.00;0.90;;;6.80;99.90;;;;;;5048479;28;20500;-69
2021/11/05 01:58:31;;;;;;;1.03;1.03;;;6.80;99.90;;;;;;5048358;28;20210;-69
2021/11/05 02:00:57;;;;;;;1.00;1.00;;;6.80;99.90;;;;;;5048462;28;20267;-69
2021/11/05 02:03:23;;;;;;;2.70;1.60;;;6.80;99.90;;;;;;5048257;28;20254;-69
2021/11/05 02:05:52;;;;;;;1.10;1.00;;;6.80;99.90;;;;;;5048094;28;20163;-69
2021/11/05 02:08:20;;;;;;;1.10;1.00;;;6.80;99.90;;;;;;5048257;28;20454;-70
2021/11/05 02:10:49;;;;;;;1.07;1.07;;;6.80;99.90;;;;;;5048114;28;20460;-70
2021/11/05 02:13:16;;;;;;;1.27;1.17;;;6.80;99.90;;;;;;5048184;28;20497;-69
2021/11/05 02:15:41;;;;;;;0.90;0.90;;;6.80;99.90;;;;;;5047921;28;20409;-69
2021/11/05 02:18:08;;;;;;;1.80;0.90;;;6.80;99.90;;;;;;5047674;28;20469;-69
2021/11/05 02:20:34;;;;;;;0.90;0.90;;;6.80;99.90;;;;;;5047986;28;20500;-69
2021/11/05 02:23:00;;;;;;;1.73;1.50;;;6.80;99.90;;;;;;5048036;28;20457;-69
2021/11/05 02:25:26;;;;;;;1.43;1.00;;;6.80;99.90;;;;;;5047860;28;20769;-70
2021/11/05 02:27:53;;;;;;;1.67;1.37;;;6.80;99.90;;;;;;5047761;28;20202;-70
2021/11/05 02:30:19;;;;;;;1.77;1.00;;;6.80;99.90;;;;;;5037794;28;20252;-70
2021/11/05 02:32:45;;;;;;;1.37;1.27;;;6.80;99.90;;;;;;5034195;28;20501;-70
2021/11/05 02:35:13;;;;;;;1.63;1.27;;;6.80;99.90;;;;;;5034548;28;20409;-70
2021/11/05 02:37:40;;;;;;;1.40;1.30;;;6.80;99.90;;;;;;5031877;28;20450;-70
2021/11/05 02:40:16;;;;;;;2.10;1.40;;;6.80;99.90;;;;;;5033003;28;20406;-70
2021/11/05 02:42:42;;;;;;;1.90;1.80;;;6.80;99.90;;;;;;5030734;28;20505;-70
2021/11/05 02:45:08;;;;;;;1.80;1.70;;;6.80;99.90;;;;;;5034130;28;20473;-70
2021/11/05 02:47:34;;;;;;;1.93;1.73;;;6.80;99.90;;;;;;5033914;28;20406;-71
2021/11/05 02:50:07;;;;;;;2.73;2.53;;;6.90;99.90;;;;;;5033989;28;20856;-70
2021/11/05 02:52:33;;;;;;;2.87;1.40;;;6.90;99.90;;;;;;5028057;28;20179;-71
2021/11/05 02:54:59;;;;;;;1.80;1.70;;;6.90;99.90;;;;;;5032373;28;20925;-70
2021/11/05 02:57:24;;;;;;;1.47;1.37;;;6.90;99.90;;;;;;5032498;28;20437;-71
2021/11/05 02:59:50;;;;;;;2.33;2.00;;;6.90;99.90;;;;;;5032180;28;20721;-70
2021/11/05 03:02:19;;;;;;;3.63;1.80;;;6.90;99.90;;;;;;5033425;28;20250;-70
2021/11/05 03:04:45;;;;;;;2.40;1.77;;;6.90;99.90;;;;;;5020671;28;20702;-71
2021/11/05 03:07:10;;;;;;;1.43;1.33;;;6.90;99.90;;;;;;5014051;28;20550;-68
2021/11/05 03:09:39;;;;;;;2.20;1.77;;;6.90;99.90;;;;;;5015001;28;20572;-69
2021/11/05 03:12:05;;;;;;;2.30;1.13;;;7.00;99.90;;;;;;5013790;28;20292;-69
2021/11/05 03:14:31;;;;;;;1.20;1.03;;;7.00;99.90;;;;;;5013916;28;20741;-69
2021/11/05 03:16:58;;;;;;;2.00;1.20;;;6.90;99.90;;;;;;5013841;28;20427;-69
2021/11/05 03:19:24;;;;;;;2.30;1.53;;;7.00;99.90;;;;;;5013489;28;20216;-70
2021/11/05 03:21:50;;;;;;;1.83;1.20;;;7.00;99.90;;;;;;5013512;28;20416;-69
2021/11/05 03:24:15;;;;;;;2.80;1.77;;;7.00;99.90;;;;;;5013724;28;20418;-72
2021/11/05 03:26:41;;;;;;;2.70;2.33;;;7.00;99.90;;;;;;5014933;28;20506;-69
2021/11/05 03:29:07;;;;;;;2.40;1.70;;;7.10;99.90;;;;;;5013415;28;20192;-69
2021/11/05 03:31:33;;;;;;;2.70;2.17;;;7.10;99.90;;;;;;5013556;28;20619;-69
2021/11/05 03:33:59;;;;;;;1.30;1.20;;;7.10;99.90;;;;;;5013318;28;20222;-69
2021/11/05 03:36:25;;;;;;;2.00;1.50;;;7.10;99.90;;;;;;5013419;28;20411;-69
2021/11/05 03:38:51;;;;;;;1.90;1.60;;;7.10;99.90;;;;;;5013407;28;20954;-69
2021/11/05 03:41:17;;;;;;;1.63;1.50;;;7.20;99.90;;;;;;5012280;28;20565;-70
2021/11/05 03:43:43;;;;;;;4.00;2.13;;;7.20;99.90;;;;;;5013046;28;20584;-69
2021/11/05 03:46:09;;;;;;;3.43;2.53;;;7.20;99.90;;;;;;5013199;28;20502;-69
2021/11/05 03:48:36;;;;;;;4.30;2.67;;;7.20;99.90;;;;;;5011799;28;20518;-70
2021/11/05 03:51:03;;;;;;;4.30;3.80;;;7.20;99.90;;;;;;5013159;28;20229;-69
2021/11/05 03:53:29;;;;;;;2.40;2.20;;;7.20;99.90;;;;;;5024819;28;20820;-73
2021/11/05 03:55:54;;;;;;;2.57;2.37;;;7.20;99.90;;;;;;5032897;28;20447;-71
2021/11/05 03:58:20;;;;;;;3.23;2.93;;;7.20;99.90;;;;;;5032599;28;20462;-69
2021/11/05 04:00:45;;;;;;;2.50;2.30;;;7.30;99.90;;;;;;5032420;28;20179;-70
2021/11/05 04:03:11;;;;;;;2.20;2.00;;;7.30;99.90;;;;;;5032530;28;20254;-69
2021/11/05 04:05:36;;;;;;;1.63;1.53;;;7.30;99.90;;;;;;5032471;28;20175;-71
2021/11/05 04:08:02;;;;;;;2.90;1.60;;;7.30;99.90;;;;;;5028746;28;20684;-70
2021/11/05 04:10:28;;;;;;;3.00;2.70;;;7.30;99.90;;;;;;5012829;28;20180;-70
2021/11/05 04:12:53;;;;;;;2.43;1.97;;;7.30;99.90;;;;;;5012637;28;20423;-70
2021/11/05 04:15:19;;;;;;;3.37;2.60;;;7.30;99.90;;;;;;5011474;28;20172;-70
2021/11/05 04:17:44;;;;;;;4.53;3.67;;;7.40;99.90;;;;;;5012514;28;20201;-69
2021/11/05 04:20:10;;;;;;;3.73;3.40;;;7.30;99.90;;;;;;5012674;28;20172;-69
2021/11/05 04:22:37;;;;;;;5.20;4.27;;;7.40;99.90;;;;;;5013032;28;20582;-69
2021/11/05 04:25:03;;;;;;;4.83;3.53;;;7.30;99.90;;;;;;5012516;28;20462;-70
2021/11/05 04:27:29;;;;;;;5.17;3.70;;;7.40;99.90;;;;;;5012516;28;20498;-69
2021/11/05 04:29:54;;;;;;;5.03;3.40;;;7.40;99.90;;;;;;5012560;28;20959;-69
2021/11/05 04:32:19;;;;;;;6.87;4.60;;;7.40;99.90;;;;;;5012350;28;20527;-70
2021/11/05 04:34:45;;;;;;;5.90;3.80;;;7.40;99.90;;;;;;5012373;28;20176;-69
2021/11/05 04:37:10;;;;;;;5.90;4.37;;;7.40;99.90;;;;;;5012541;28;20520;-68
2021/11/05 04:39:36;;;;;;;5.63;5.10;;;7.50;99.90;;;;;;5012115;28;20220;-69
2021/11/05 04:42:02;;;;;;;7.70;4.47;;;7.50;99.90;;;;;;5011558;28;20217;-71
2021/11/05 04:44:28;;;;;;;6.10;4.30;;;7.50;99.90;;;;;;5012364;28;20188;-71
2021/11/05 04:46:54;;;;;;;8.00;4.57;;;7.50;99.90;;;;;;5012461;28;20216;-72
2021/11/05 04:49:22;;;;;;;6.03;4.53;;;7.50;99.90;;;;;;5012464;28;21038;-71
2021/11/05 04:51:48;;;;;;;6.67;4.67;;;7.50;99.90;;;;;;5012111;28;20277;-72
2021/11/05 04:54:13;;;;;;;4.97;4.33;;;7.50;99.90;;;;;;5012039;28;20941;-71
2021/11/05 04:56:39;;;;;;;5.00;3.47;;;7.50;99.90;;;;;;5012324;28;20548;-71
2021/11/05 04:59:05;;;;;;;6.97;4.20;;;7.50;99.90;;;;;;5012023;28;20204;-72
2021/11/05 05:01:31;;;;;;;6.97;5.80;;;7.50;99.90;;;;;;5012274;28;20171;-72
2021/11/05 05:03:56;;;;;;;7.80;5.77;;;7.50;99.90;;;;;;5012004;28;20403;-71
2021/11/05 05:06:22;;;;;;;8.50;6.33;;;7.50;99.90;;;;;;5011999;28;20403;-70
2021/11/05 05:08:47;;;;;;;9.90;7.50;;;7.60;99.90;;;;;;5011933;28;20205;-70
2021/11/05 05:11:13;;;;;;;13.10;6.40;;;7.50;99.90;;;;;;5011845;28;20165;-70
2021/11/05 05:13:40;;;;;;;9.27;7.40;;;7.60;99.90;;;;;;5012004;28;20175;-70
2021/11/05 05:16:06;;;;;;;8.20;5.93;;;7.60;99.90;;;;;;5011985;28;20399;-70
2021/11/05 05:18:31;;;;;;;13.50;7.03;;;7.50;99.90;;;;;;5010403;28;20493;-71
2021/11/05 05:20:57;;;;;;;7.40;6.00;;;7.60;99.90;;;;;;5011820;28;20172;-71
2021/11/05 05:23:22;;;;;;;11.07;7.80;;;7.60;99.90;;;;;;5011892;28;20598;-71
2021/11/05 05:25:48;;;;;;;10.20;5.87;;;7.60;99.90;;;;;;5011870;28;20173;-70
2021/11/05 05:28:13;;;;;;;7.20;4.60;;;7.60;99.90;;;;;;5011893;28;20196;-71
2021/11/05 05:30:39;;;;;;;12.97;8.17;;;7.70;99.90;;;;;;5011867;28;20263;-71
2021/11/05 05:33:05;;;;;;;8.07;6.50;;;7.60;99.90;;;;;;5011967;28;20522;-72
2021/11/05 05:35:30;;;;;;;8.30;6.67;;;7.60;99.90;;;;;;5010478;28;20176;-70
2021/11/05 05:37:56;;;;;;;12.27;9.60;;;7.60;99.90;;;;;;5012152;28;20207;-70
2021/11/05 05:40:22;;;;;;;10.47;8.00;;;7.60;99.90;;;;;;5011889;28;20542;-70
2021/11/05 05:42:48;;;;;;;10.20;7.07;;;7.70;99.90;;;;;;5013280;28;20180;-71
2021/11/05 05:45:14;;;;;;;14.93;7.30;;;7.70;99.90;;;;;;5011748;28;20436;-72
2021/11/05 05:47:42;;;;;;;10.07;6.40;;;7.70;99.90;;;;;;5011994;28;20655;-71
2021/11/05 05:50:11;;;;;;;9.90;7.70;;;7.70;99.90;;;;;;5011785;28;20169;-72
2021/11/05 05:52:37;;;;;;;10.93;6.93;;;7.70;99.90;;;;;;5011787;28;20407;-71
2021/11/05 05:55:04;;;;;;;9.07;6.40;;;7.70;99.90;;;;;;5011068;28;20423;-71
2021/11/05 05:57:30;;;;;;;10.33;6.50;;;7.70;99.90;;;;;;5011854;28;20408;-71
2021/11/05 05:59:55;;;;;;;13.20;8.40;;;7.70;99.90;;;;;;5012041;28;20929;-71
2021/11/05 06:02:21;;;;;;;10.90;7.30;;;7.70;99.90;;;;;;5010789;28;20279;-70
2021/11/05 06:04:46;;;;;;;10.00;6.93;;;7.70;99.90;;;;;;5012625;28;20172;-71
2021/11/05 06:07:12;;;;;;;10.23;6.57;;;7.70;99.90;;;;;;5015287;28;20165;-71
2021/11/05 06:09:37;;;;;;;12.03;8.70;;;7.70;99.90;;;;;;5015098;28;20264;-70
2021/11/05 06:12:03;;;;;;;13.47;7.43;;;7.80;99.90;;;;;;5015429;28;20192;-71
2021/11/05 06:14:29;;;;;;;12.40;9.10;;;7.80;99.90;;;;;;5015173;28;20251;-71
2021/11/05 06:16:54;;;;;;;11.20;8.13;;;7.70;99.90;;;;;;5015147;28;20431;-72
2021/11/05 06:19:20;;;;;;;10.67;7.10;;;7.80;99.90;;;;;;5014957;28;20244;-70
2021/11/05 06:21:46;;;;;;;13.07;9.10;;;7.70;99.90;;;;;;5014975;28;20631;-71
2021/11/05 06:24:11;;;;;;;11.63;6.90;;;7.80;99.90;;;;;;5015023;28;20632;-71
2021/11/05 06:26:36;;;;;;;13.27;7.73;;;7.90;99.90;;;;;;5014943;28;20176;-71
2021/11/05 06:29:03;;;;;;;13.80;8.03;;;7.80;99.90;;;;;;5014859;28;20200;-71
2021/11/05 06:31:30;;;;;;;13.03;10.27;;;7.80;99.90;;;;;;5013679;28;20408;-71
2021/11/05 06:33:56;;;;;;;13.30;8.00;;;7.80;99.90;;;;;;5014663;28;20412;-70
2021/11/05 06:36:21;;;;;;;14.30;7.57;;;7.80;99.90;;;;;;5014984;28;20414;-72
2021/11/05 06:38:47;;;;;;;16.73;7.97;;;7.80;99.90;;;;;;5014625;28;20208;-72
2021/11/05 06:41:15;;;;;;;9.90;8.30;;;7.80;99.90;;;;;;5014548;28;20172;-70
2021/11/05 06:43:40;;;;;;;13.67;10.07;;;7.80;99.90;;;;;;5015300;28;20408;-71
2021/11/05 06:46:06;;;;;;;16.00;9.40;;;7.70;99.90;;;;;;5014661;28;20414;-71
2021/11/05 06:48:33;;;;;;;14.17;6.80;;;7.80;99.90;;;;;;5014357;28;20318;-71
2021/11/05 06:51:00;;;;;;;17.90;8.20;;;7.80;99.90;;;;;;5014419;28;20532;-71
2021/11/05 06:53:25;;;;;;;11.20;6.90;;;7.80;99.90;;;;;;5014322;28;20403;-72
2021/11/05 06:55:51;;;;;;;8.47;6.40;;;7.80;99.90;;;;;;5013101;28;20412;-71
2021/11/05 06:58:16;;;;;;;12.50;7.20;;;7.80;99.90;;;;;;5014293;28;20227;-71
2021/11/05 07:00:42;;;;;;;10.30;6.20;;;7.80;99.90;;;;;;5014279;28;20176;-71
2021/11/05 07:03:07;;;;;;;11.70;7.27;;;7.80;99.90;;;;;;5014220;28;20168;-72
2021/11/05 07:05:34;;;;;;;10.97;5.60;;;7.80;99.90;;;;;;5015598;28;20174;-74
2021/11/05 07:08:00;;;;;;;11.93;7.93;;;7.80;99.90;;;;;;5015280;28;20200;-73
2021/11/05 07:10:26;;;;;;;11.80;6.17;;;7.80;99.90;;;;;;5015225;28;20419;-73
2021/11/05 07:12:51;;;;;;;7.97;5.57;;;7.80;99.90;;;;;;5015312;28;20632;-74
2021/11/05 07:15:18;;;;;;;6.07;5.47;;;7.90;99.90;;;;;;5012818;28;20543;-73
2021/11/05 07:17:44;;;;;;;10.07;6.87;;;7.90;99.90;;;;;;5014326;28;20295;-72
2021/11/05 07:20:10;;;;;;;7.23;4.13;;;7.90;99.90;;;;;;5014340;28;20885;-72
2021/11/05 07:22:37;;;;;;;7.10;5.37;;;7.90;99.90;;;;;;5021452;28;20706;-73
2021/11/05 07:25:05;;;;;;;8.90;4.77;;;7.80;99.90;;;;;;5034461;28;20407;-72
2021/11/05 07:27:31;;;;;;;5.87;5.27;;;7.90;99.90;;;;;;5034253;28;20403;-72
2021/11/05 07:29:57;;;;;;;9.37;4.90;;;7.90;99.90;;;;;;5033723;28;20431;-72
2021/11/05 07:32:23;;;;;;;7.00;4.80;;;7.80;99.90;;;;;;5034137;28;20243;-72
2021/11/05 07:34:53;;;;;;;10.73;6.60;;;7.90;99.90;;;;;;5034001;28;20405;-71
2021/11/05 07:37:19;;;;;;;10.60;5.60;;;7.90;99.90;;;;;;5034447;28;20394;-73
2021/11/05 07:39:45;;;;;;;6.27;4.53;;;7.90;99.90;;;;;;5033713;28;20434;-71
2021/11/05 07:42:12;;;;;;;7.60;4.67;;;7.90;99.90;;;;;;5032452;28;20167;-73
2021/11/05 07:44:38;;;;;;;7.70;4.77;;;7.90;99.90;;;;;;5033652;28;20414;-73
2021/11/05 07:47:05;;;;;;;9.33;5.30;;;7.90;99.90;;;;;;5034045;28;20399;-73
2021/11/05 07:49:30;;;;;;;13.53;4.83;;;7.90;99.90;;;;;;5033902;28;20431;-73
2021/11/05 07:51:56;;;;;;;9.97;5.87;;;8.00;99.90;;;;;;5033427;28;20416;-73
2021/11/05 07:54:22;;;;;;;5.57;4.97;;;8.00;99.90;;;;;;5033678;28;20521;-74
2021/11/05 07:56:48;;;;;;;6.57;4.07;;;8.00;99.90;;;;;;5033812;28;20275;-73
2021/11/05 07:59:14;;;;;;;8.53;5.17;;;8.00;99.90;;;;;;5033441;28;20541;-74
2021/11/05 08:01:40;;;;;;;12.30;4.40;;;8.00;99.90;;;;;;5033551;28;20498;-74
2021/11/05 08:04:06;;;;;;;12.67;5.37;;;8.00;99.90;;;;;;5033483;28;20529;-74
2021/11/05 08:06:31;;;;;;;7.80;4.37;;;8.00;99.90;;;;;;5033564;28;20164;-72
2021/11/05 08:09:07;;;;;;;7.10;4.10;;;8.10;99.90;;;;;;5033798;28;20215;-73
2021/11/05 08:11:34;;;;;;;5.23;3.40;;;8.10;99.90;;;;;;5016260;28;20171;-73
2021/11/05 08:14:00;;;;;;;8.30;4.90;;;8.00;99.90;;;;;;5033815;28;20817;-73
2021/11/05 08:16:26;;;;;;;5.07;3.67;;;8.10;99.90;;;;;;5033681;28;20484;-71
2021/11/05 08:18:52;;;;;;;8.97;4.97;;;8.10;99.90;;;;;;5033407;28;20203;-70
2021/11/05 08:21:18;;;;;;;6.83;4.03;;;8.20;99.90;;;;;;5033109;28;20841;-71
2021/11/05 08:23:44;;;;;;;5.80;3.93;;;8.20;99.90;;;;;;5032374;28;20413;-72
2021/11/05 08:26:10;;;;;;;9.73;4.47;;;8.20;99.90;;;;;;5032672;28;20431;-72
2021/11/05 08:28:38;;;;;;;6.33;3.90;;;8.20;99.90;;;;;;5032219;28;20422;-72
2021/11/05 08:31:04;;;;;;;7.87;4.17;;;8.30;99.90;;;;;;5032921;28;20411;-72
2021/11/05 08:33:30;;;;;;;8.00;4.30;;;8.30;99.90;;;;;;5032670;28;20407;-71
2021/11/05 08:35:56;;;;;;;5.93;3.97;;;8.40;99.90;;;;;;5032888;28;20753;-72
2021/11/05 08:38:25;;;;;;;6.03;3.93;;;8.30;99.90;;;;;;5034396;28;20195;-72
2021/11/05 08:40:52;;;;;;;6.00;3.90;;;8.40;99.90;;;;;;5032674;28;20402;-70
2021/11/05 08:43:21;;;;;;;7.13;4.47;;;8.40;99.90;;;;;;5032738;28;20478;-72
2021/11/05 08:45:46;;;;;;;5.80;3.70;;;8.40;99.90;;;;;;5032521;28;20770;-72
2021/11/05 08:48:14;;;;;;;7.33;5.20;;;8.40;99.90;;;;;;5030445;28;20426;-72
2021/11/05 08:50:40;;;;;;;5.23;4.00;;;8.40;99.90;;;;;;5031651;28;20199;-73
2021/11/05 08:53:06;;;;;;;4.30;3.47;;;8.50;99.90;;;;;;5030361;28;20413;-73
2021/11/05 08:55:32;;;;;;;6.27;4.10;;;8.40;99.90;;;;;;5031649;28;20414;-73
2021/11/05 08:57:58;;;;;;;6.27;3.70;;;8.30;99.90;;;;;;5031128;28;20702;-73
2021/11/05 09:00:26;;;;;;;6.07;4.30;;;8.40;99.90;;;;;;5030205;28;20176;-72
2021/11/05 09:02:53;;;;;;;6.10;3.73;;;8.40;99.90;;;;;;5031382;28;20399;-73
2021/11/05 09:05:19;;;;;;;4.13;3.37;;;8.50;99.90;;;;;;5031216;28;20474;-73
2021/11/05 09:07:45;;;;;;;5.80;4.00;;;8.50;99.90;;;;;;5033114;28;20746;-73
2021/11/05 09:10:13;;;;;;;6.27;3.70;;;8.40;99.90;;;;;;5031872;28;20482;-71
2021/11/05 09:12:39;;;;;;;7.40;4.20;;;8.50;99.90;;;;;;5034198;28;20995;-75
2021/11/05 09:15:07;;;;;;;4.20;3.80;;;8.50;99.90;;;;;;5037471;28;20450;-77
2021/11/05 09:17:34;;;;;;;9.50;4.27;;;8.50;99.90;;;;;;5033261;28;20435;-77
2021/11/05 09:20:00;;;;;;;3.70;2.90;;;8.40;99.90;;;;;;5029339;28;20984;-72
2021/11/05 09:22:26;;;;;;;6.47;4.03;;;8.60;99.90;;;;;;5023591;28;20499;-71
2021/11/05 09:24:51;;;;;;;3.67;2.60;;;8.60;99.90;;;;;;5025924;28;20172;-71
2021/11/05 09:27:17;;;;;;;6.77;3.43;;;8.60;99.90;;;;;;5032134;28;20177;-73
2021/11/05 09:29:43;;;;;;;4.13;3.83;;;8.60;99.90;;;;;;5031040;28;20226;-72
2021/11/05 09:32:09;;;;;;;5.80;4.17;;;8.50;99.90;;;;;;5032344;28;20476;-73
2021/11/05 09:34:34;;;;;;;5.27;3.57;;;8.50;99.90;;;;;;5031853;28;20517;-72
2021/11/05 09:37:01;;;;;;;3.80;2.77;;;8.50;99.90;;;;;;5031230;28;20169;-71
2021/11/05 09:39:28;;;;;;;4.57;2.50;;;8.60;99.90;;;;;;5033635;28;20318;-72
2021/11/05 09:41:53;;;;;;;5.00;3.03;;;8.70;99.90;;;;;;5036144;28;20964;-73
2021/11/05 09:44:20;;;;;;;3.37;3.07;;;8.80;99.90;;;;;;5035256;28;20450;-73
2021/11/05 09:46:45;;;;;;;5.90;2.60;;;8.80;99.90;;;;;;5036360;28;20579;-73
2021/11/05 09:49:11;;;;;;;4.20;2.40;;;8.80;99.90;;;;;;5035865;28;20436;-74
2021/11/05 09:51:37;;;;;;;5.10;3.23;;;8.80;99.90;;;;;;5037016;28;20185;-72
2021/11/05 09:54:03;;;;;;;3.20;2.80;;;8.90;99.90;;;;;;5036351;28;20708;-72
2021/11/05 09:56:29;;;;;;;3.80;2.80;;;8.90;99.90;;;;;;5037589;28;20425;-71
2021/11/05 09:58:54;;;;;;;3.60;2.27;;;9.00;99.90;;;;;;5037240;28;20461;-73
2021/11/05 10:01:20;;;;;;;3.33;2.30;;;8.90;99.90;;;;;;5037733;28;20171;-73
2021/11/05 10:03:45;;;;;;;4.70;2.83;;;8.90;99.90;;;;;;5037395;28;20250;-73
2021/11/05 10:06:13;;;;;;;4.77;2.50;;;9.00;99.90;;;;;;5037462;28;20176;-73
2021/11/05 10:08:39;;;;;;;2.40;2.17;;;8.90;99.90;;;;;;5036443;28;20209;-73
2021/11/05 10:11:29;;;;;;;3.50;2.70;;;9.00;99.90;;;;;;5036625;28;20984;-73
2021/11/05 10:13:57;;;;;;;3.17;2.10;;;9.00;99.90;;;;;;5036514;28;20192;-72
2021/11/05 10:16:25;;;;;;;2.43;1.80;;;9.10;99.90;;;;;;5035938;28;20409;-73
2021/11/05 10:19:04;;;;;;;3.20;2.03;;;9.10;99.90;;;;;;5034610;28;20469;-72
2021/11/05 10:21:41;;;;;;;1.80;1.70;;;9.20;99.90;;;;;;5034933;28;20409;-73
2021/11/05 10:24:27;;;;;;;2.70;2.20;;;9.20;99.90;;;;;;5037916;28;20438;-71
2021/11/05 10:26:53;;;;;;;2.17;1.60;;;9.30;99.90;;;;;;5036904;28;20777;-73
2021/11/05 10:29:28;;;;;;;3.80;2.67;;;9.40;99.90;;;;;;5038831;28;20445;-73
2021/11/05 10:32:06;;;;;;;5.87;1.80;;;9.20;99.90;;;;;;5038288;28;20173;-72
2021/11/05 10:34:52;;;;;;;2.30;1.83;;;9.10;99.90;;;;;;5038709;28;20445;-71
2021/11/05 10:37:29;;;;;;;2.80;1.70;;;9.10;99.90;;;;;;5037186;28;20498;-71
2021/11/05 10:39:57;;;;;;;2.40;1.90;;;9.20;99.90;;;;;;5038175;28;20446;-72
2021/11/05 10:42:34;;;;;;;3.20;1.97;;;9.30;99.90;;;;;;5036968;28;20410;-72
2021/11/05 10:45:20;;;;;;;3.47;2.40;;;9.10;99.90;;;;;;5017723;28;20977;-73
2021/11/05 10:47:54;;;;;;;3.03;1.90;;;9.20;99.90;;;;;;5014964;28;21004;-72
2021/11/05 10:50:33;;;;;;;9.33;2.63;;;9.20;99.90;;;;;;5014153;28;20924;-73
2021/11/05 10:53:12;;;;;;;1.93;1.50;;;9.40;99.90;;;;;;5013073;28;20883;-71
2021/11/05 10:56:00;;;;;;;2.10;1.90;;;9.50;99.90;;;;;;5022118;28;20408;-73
2021/11/05 10:58:33;;;;;;;2.13;1.87;;;9.60;99.90;;;;;;5034009;28;20480;-73
2021/11/05 11:01:00;;;;;;;4.80;2.70;;;9.50;99.90;;;;;;5034225;28;20499;-72
2021/11/05 11:03:33;;;;;;;3.37;2.10;;;9.50;99.90;;;;;;5034060;28;20411;-72
2021/11/05 11:06:07;;;;;;;2.17;1.80;;;9.50;99.90;;;;;;5034829;28;20833;-73
2021/11/05 11:08:35;;;;;;;2.60;2.40;;;9.40;99.90;;;;;;5034115;28;20441;-73
2021/11/05 11:11:19;;;;;;;4.00;2.63;;;9.50;99.90;;;;;;5033930;28;20767;-72
2021/11/05 11:13:46;;;;;;;2.23;1.70;;;9.40;99.90;;;;;;5034221;28;20432;-74
2021/11/05 11:16:24;;;;;;;4.60;2.37;;;9.50;99.90;;;;;;5034640;28;20448;-73
2021/11/05 11:18:54;;;;;;;2.70;2.20;;;9.40;99.90;;;;;;5033267;28;20824;-72
2021/11/05 11:21:21;;;;;;;2.60;1.90;;;9.30;99.90;;;;;;5034204;28;20400;-73
2021/11/05 11:23:47;;;;;;;2.77;2.00;;;9.40;99.90;;;;;;5033569;28;20408;-71
2021/11/05 11:26:13;;;;;;;2.73;1.60;;;9.40;99.90;;;;;;5035015;28;20409;-73
2021/11/05 11:28:40;;;;;;;3.73;1.93;;;9.40;99.90;;;;;;5033393;28;20412;-73
2021/11/05 11:31:06;;;;;;;3.77;2.20;;;9.40;99.90;;;;;;5034240;28;20920;-73
2021/11/05 11:33:32;;;;;;;2.43;1.90;;;9.40;99.90;;;;;;5034422;28;20411;-72
2021/11/05 11:35:59;;;;;;;3.00;2.03;;;9.30;99.90;;;;;;5033900;28;20795;-72
2021/11/05 11:38:24;;;;;;;2.10;1.90;;;9.40;99.90;;;;;;5034424;28;21205;-73
2021/11/05 11:40:51;;;;;;;3.20;1.87;;;9.50;99.90;;;;;;5034114;28;20490;-72
2021/11/05 11:43:20;;;;;;;2.43;1.87;;;9.40;99.90;;;;;;5033063;28;20197;-73
2021/11/05 11:45:51;;;;;;;2.20;2.00;;;9.40;99.90;;;;;;5032673;28;20460;-71
2021/11/05 11:48:39;;;;;;;5.33;2.50;;;9.50;99.90;;;;;;5033661;28;20505;-72
2021/11/05 11:51:21;;;;;;;3.00;2.23;;;9.40;99.90;;;;;;5033773;28;20900;-72
2021/11/05 11:53:48;;;;;;;2.00;1.87;;;9.50;99.90;;;;;;5034033;28;20417;-72
2021/11/05 11:56:46;;;;;;;3.10;2.60;;;9.60;99.90;;;;;;5034460;28;20405;-72
2021/11/05 11:59:15;;;;;;;2.50;1.77;;;9.60;99.90;;;;;;5022018;28;20500;-72
2021/11/05 12:01:43;;;;;;;2.10;1.77;;;9.60;99.90;;;;;;5033929;28;20403;-72
2021/11/05 12:04:10;;;;;;;2.17;1.70;;;9.70;99.90;;;;;;5033506;28;20418;-73
2021/11/05 12:06:52;;;;;;;2.40;2.10;;;9.70;99.90;;;;;;5034013;28;20406;-72
2021/11/05 12:09:32;;;;;;;2.60;1.57;;;9.70;99.90;;;;;;5033916;28;20507;-71
2021/11/05 12:12:19;;;;;;;1.53;1.43;;;9.70;99.90;;;;;;5034688;28;20407;-73
2021/11/05 12:15:02;;;;;;;2.10;1.90;;;9.80;99.90;;;;;;5034495;28;20402;-72
2021/11/05 12:17:46;;;;;;;3.23;2.90;;;9.70;99.90;;;;;;5034272;28;20417;-71
2021/11/05 12:20:29;;;;;;;3.40;1.67;;;9.90;99.90;;;;;;5034965;28;20965;-72
2021/11/05 12:23:15;;;;;;;3.33;1.90;;;10.00;99.90;;;;;;5034115;28;20432;-72
2021/11/05 12:25:56;;;;;;;2.77;2.37;;;10.00;99.90;;;;;;5033033;28;20769;-72
2021/11/05 12:28:41;;;;;;;3.30;2.40;;;10.10;99.90;;;;;;5033401;28;20768;-72
2021/11/05 12:31:24;;;;;;;3.00;2.70;;;10.20;99.90;;;;;;5033427;28;20928;-73
2021/11/05 12:33:50;;;;;;;4.80;3.73;;;10.00;99.90;;;;;;5033063;28;20469;-72
2021/11/05 12:36:16;;;;;;;3.97;2.60;;;10.10;99.90;;;;;;5033610;28;20476;-72
2021/11/05 12:39:01;;;;;;;4.10;2.70;;;10.10;99.90;;;;;;5033068;28;20450;-72
2021/11/05 12:41:27;;;;;;;2.70;2.33;;;10.20;99.90;;;;;;5033736;28;20170;-72
2021/11/05 12:43:53;;;;;;;3.13;2.20;;;10.30;99.90;;;;;;5034246;28;20509;-72
2021/11/05 12:46:21;;;;;;;5.40;2.80;;;10.30;99.90;;;;;;5033636;28;20413;-72
2021/11/05 12:48:51;;;;;;;4.57;2.60;;;10.30;99.90;;;;;;5033831;28;20657;-72
2021/11/05 12:51:24;;;;;;;4.40;2.97;;;10.20;99.90;;;;;;5033088;28;20478;-71
2021/11/05 12:54:03;;;;;;;5.13;2.97;;;10.20;99.90;;;;;;5033251;28;20404;-75
2021/11/05 12:56:29;;;;;;;6.97;4.10;;;10.30;99.90;;;;;;5032257;28;20406;-76
2021/11/05 12:58:55;;;;;;;3.40;2.80;;;10.30;99.90;;;;;;5032933;28;20549;-71